createdAt,value
2018-09-06T00:01:41.525Z,47.37
2018-09-06T00:04:10.079Z,50.17
2018-09-06T00:06:38.736Z,47.57
2018-09-06T00:09:08.884Z,50.77
2018-09-06T00:11:37.424Z,48.57
2018-09-06T00:14:06.186Z,47.97
2018-09-06T00:16:34.874Z,48.07
2018-09-06T00:19:03.371Z,49.57
2018-09-06T00:21:31.938Z,51.33
2018-09-06T00:24:00.701Z,50.13
2018-09-06T00:26:29.244Z,50.67
2018-09-06T00:28:57.937Z,51.97
2018-09-06T00:31:26.425Z,51.53
2018-09-06T00:33:54.905Z,49.30
2018-09-06T00:36:23.579Z,49.57
2018-09-06T00:38:52.156Z,50.33
2018-09-06T00:41:20.722Z,48.73
2018-09-06T00:43:49.241Z,50.67
2018-09-06T00:46:17.885Z,48.60
2018-09-06T00:48:46.381Z,46.57
2018-09-06T00:51:14.922Z,44.43
2018-09-06T00:53:43.744Z,43.27
2018-09-06T00:56:12.316Z,42.47
2018-09-06T00:58:41.204Z,42.33
2018-09-06T01:01:09.768Z,43.10
2018-09-06T01:03:38.526Z,42.10
2018-09-06T01:06:07.342Z,41.00
2018-09-06T01:08:36.056Z,39.67
2018-09-06T01:11:04.594Z,39.90
2018-09-06T01:13:33.118Z,39.30
2018-09-06T01:16:01.660Z,37.87
2018-09-06T01:18:30.475Z,38.87
2018-09-06T01:20:59.002Z,36.50
2018-09-06T01:23:27.478Z,38.00
2018-09-06T01:25:56.016Z,37.73
2018-09-06T01:28:24.828Z,37.10
2018-09-06T01:30:53.774Z,35.27
2018-09-06T01:33:22.289Z,36.33
2018-09-06T01:35:56.360Z,36.73
2018-09-06T01:38:24.954Z,37.80
2018-09-06T01:40:53.551Z,37.13
2018-09-06T01:43:22.101Z,36.63
2018-09-06T01:45:50.679Z,36.57
2018-09-06T01:48:19.312Z,35.87
2018-09-06T01:50:48.267Z,36.53
2018-09-06T01:53:17.007Z,36.00
2018-09-06T01:55:45.781Z,34.37
2018-09-06T01:58:16.765Z,35.33
2018-09-06T02:00:45.358Z,36.17
2018-09-06T02:03:13.863Z,37.10
2018-09-06T02:05:42.425Z,35.97
2018-09-06T02:08:11.153Z,35.73
2018-09-06T02:10:39.691Z,39.33
2018-09-06T02:13:08.185Z,39.70
2018-09-06T02:15:36.690Z,40.70
2018-09-06T02:18:05.397Z,41.43
2018-09-06T02:20:34.170Z,41.70
2018-09-06T02:23:02.730Z,42.17
2018-09-06T02:25:31.440Z,42.10
2018-09-06T02:28:00.020Z,42.50
2018-09-06T02:30:29.416Z,41.17
2018-09-06T02:32:58.691Z,41.20
2018-09-06T02:35:27.190Z,41.67
2018-09-06T02:37:55.709Z,42.70
2018-09-06T02:40:29.602Z,43.03
2018-09-06T02:42:58.152Z,42.80
2018-09-06T02:45:26.696Z,41.10
2018-09-06T02:47:56.366Z,39.73
2018-09-06T02:50:30.502Z,41.20
2018-09-06T02:52:59.028Z,39.73
2018-09-06T02:55:28.964Z,40.73
2018-09-06T02:57:58.242Z,41.50
2018-09-06T03:00:32.702Z,39.83
2018-09-06T03:03:01.533Z,39.17
2018-09-06T03:05:30.064Z,36.33
2018-09-06T03:07:59.792Z,37.47
2018-09-06T03:11:36.714Z,36.80
2018-09-06T03:15:34.429Z,35.97
2018-09-06T03:18:03.383Z,35.00
2018-09-06T03:20:31.916Z,35.17
2018-09-06T03:23:00.496Z,37.73
2018-09-06T03:25:28.985Z,38.20
2018-09-06T03:27:57.616Z,37.43
2018-09-06T03:30:26.471Z,38.80
2018-09-06T03:32:55.037Z,39.87
2018-09-06T03:35:23.516Z,39.60
2018-09-06T03:37:52.127Z,39.67
2018-09-06T03:40:20.625Z,39.63
2018-09-06T03:42:49.293Z,37.67
2018-09-06T03:45:18.263Z,39.90
2018-09-06T03:47:47.781Z,38.17
2018-09-06T03:50:16.304Z,36.70
2018-09-06T03:52:44.866Z,38.20
2018-09-06T03:55:13.959Z,37.63
2018-09-06T03:57:42.555Z,35.43
2018-09-06T04:00:11.112Z,36.00
2018-09-06T04:02:39.687Z,36.03
2018-09-06T04:05:08.252Z,36.67
2018-09-06T04:07:36.722Z,34.70
2018-09-06T04:10:05.583Z,35.73
2018-09-06T04:12:34.096Z,35.27
2018-09-06T04:15:03.122Z,35.57
2018-09-06T04:17:32.130Z,36.43
2018-09-06T04:20:00.794Z,35.33
2018-09-06T04:22:29.259Z,35.07
2018-09-06T04:24:57.766Z,33.03
2018-09-06T04:27:26.320Z,30.43
2018-09-06T04:29:54.829Z,31.67
2018-09-06T04:32:24.763Z,30.03
2018-09-06T04:34:53.345Z,31.27
2018-09-06T04:37:21.913Z,30.30
2018-09-06T04:39:50.609Z,31.17
2018-09-06T04:42:19.337Z,30.57
2018-09-06T04:44:47.876Z,29.53
2018-09-06T04:47:26.793Z,29.23
2018-09-06T04:49:55.333Z,28.43
2018-09-06T04:52:25.667Z,30.33
2018-09-06T04:54:54.529Z,29.87
2018-09-06T04:57:23.355Z,27.80
2018-09-06T04:59:52.397Z,28.67
2018-09-06T05:02:21.358Z,28.97
2018-09-06T05:04:50.369Z,25.73
2018-09-06T05:07:19.281Z,26.93
2018-09-06T05:09:48.033Z,28.00
2018-09-06T05:12:16.562Z,27.57
2018-09-06T05:14:45.362Z,28.43
2018-09-06T05:17:13.893Z,28.57
2018-09-06T05:19:42.405Z,28.30
2018-09-06T05:22:11.031Z,27.80
2018-09-06T05:24:39.599Z,27.10
2018-09-06T05:27:08.281Z,26.67
2018-09-06T05:29:36.903Z,25.00
2018-09-06T05:32:05.415Z,26.43
2018-09-06T05:34:33.909Z,25.37
2018-09-06T05:37:02.439Z,24.30
2018-09-06T05:39:30.969Z,22.80
2018-09-06T05:42:00.002Z,24.23
2018-09-06T05:44:29.502Z,25.10
2018-09-06T05:46:58.036Z,23.83
2018-09-06T05:49:26.564Z,23.73
2018-09-06T05:51:55.261Z,25.67
2018-09-06T05:54:23.835Z,25.27
2018-09-06T05:56:52.370Z,24.10
2018-09-06T05:59:20.902Z,24.53
2018-09-06T06:01:49.418Z,24.67
2018-09-06T06:04:18.207Z,24.13
2018-09-06T06:24:05.039Z,23.80
2018-09-06T06:26:33.565Z,23.03
2018-09-06T06:29:02.070Z,25.53
2018-09-06T06:31:30.646Z,25.73
2018-09-06T06:33:59.212Z,24.83
2018-09-06T06:36:28.033Z,24.83
2018-09-06T06:38:56.632Z,24.57
2018-09-06T06:41:25.173Z,24.97
2018-09-06T06:43:53.699Z,25.27
2018-09-06T06:46:22.198Z,25.33
2018-09-06T06:48:50.867Z,23.60
2018-09-06T06:51:19.350Z,25.17
2018-09-06T06:53:47.959Z,24.23
2018-09-06T06:56:16.468Z,22.80
2018-09-06T06:58:44.989Z,22.30
2018-09-06T07:01:13.535Z,22.60
2018-09-06T07:03:42.115Z,22.40
2018-09-06T07:06:10.654Z,22.57
2018-09-06T07:08:39.141Z,22.73
2018-09-06T07:11:07.967Z,22.37
2018-09-06T07:13:37.083Z,21.40
2018-09-06T07:16:05.851Z,20.97
2018-09-06T07:18:34.433Z,20.77
2018-09-06T07:21:03.167Z,19.17
2018-09-06T07:23:32.009Z,21.07
2018-09-06T07:26:00.546Z,20.00
2018-09-06T07:28:29.088Z,19.80
2018-09-06T07:30:57.595Z,18.80
2018-09-06T07:33:26.090Z,17.60
2018-09-06T07:38:53.168Z,17.33
2018-09-06T07:41:21.750Z,18.07
2018-09-06T07:43:50.320Z,17.23
2018-09-06T07:46:19.126Z,18.10
2018-09-06T07:48:47.942Z,17.77
2018-09-06T07:51:16.487Z,18.90
2018-09-06T07:53:45.178Z,19.87
2018-09-06T07:56:13.732Z,21.13
2018-09-06T07:58:42.246Z,20.87
2018-09-06T08:01:11.331Z,20.63
2018-09-06T08:03:40.416Z,21.53
2018-09-06T08:23:28.003Z,19.60
2018-09-06T08:25:56.523Z,19.87
2018-09-06T08:28:25.097Z,20.03
2018-09-06T08:30:53.813Z,18.00
2018-09-06T08:33:22.299Z,17.87
2018-09-06T08:35:50.819Z,17.37
2018-09-06T08:38:19.300Z,17.43
2018-09-06T08:40:47.787Z,17.00
2018-09-06T08:43:16.377Z,16.43
2018-09-06T08:45:45.996Z,16.73
2018-09-06T08:48:14.951Z,15.37
2018-09-06T08:50:43.435Z,14.40
2018-09-06T08:53:12.077Z,13.87
2018-09-06T08:55:40.597Z,13.67
2018-09-06T08:58:09.093Z,13.60
2018-09-06T09:00:40.093Z,13.00
2018-09-06T09:03:09.455Z,12.60
2018-09-06T09:05:38.078Z,12.90
2018-09-06T09:09:35.804Z,12.53
2018-09-06T09:12:04.921Z,11.83
2018-09-06T09:14:33.544Z,11.70
2018-09-06T09:17:02.230Z,12.10
2018-09-06T09:19:30.773Z,11.53
2018-09-06T09:21:59.434Z,12.70
2018-09-06T09:24:27.968Z,12.20
2018-09-06T09:26:56.670Z,12.60
2018-09-06T09:29:25.424Z,12.77
2018-09-06T09:31:54.640Z,12.23
2018-09-06T09:34:23.114Z,12.17
2018-09-06T09:36:51.656Z,11.43
2018-09-06T09:39:20.465Z,11.30
2018-09-06T09:41:49.389Z,11.70
2018-09-06T09:44:18.239Z,12.67
2018-09-06T09:49:15.047Z,12.13
2018-09-06T09:51:43.821Z,11.27
2018-09-06T09:54:12.351Z,11.80
2018-09-06T09:56:40.895Z,11.93
2018-09-06T09:59:09.407Z,12.33
2018-09-06T10:01:43.723Z,13.63
2018-09-06T10:04:17.649Z,11.60
2018-09-06T10:06:51.510Z,6.57
2018-09-06T10:09:23.071Z,5.40
2018-09-06T10:11:51.738Z,4.50
2018-09-06T10:14:20.293Z,3.23
2018-09-06T10:16:49.177Z,3.80
2018-09-06T10:19:17.905Z,4.37
2018-09-06T10:21:46.383Z,4.30
2018-09-06T10:24:14.925Z,4.20
2018-09-06T10:26:43.620Z,4.80
2018-09-06T10:29:12.163Z,6.80
2018-09-06T10:31:40.683Z,6.73
2018-09-06T10:34:09.230Z,7.33
2018-09-06T10:36:37.745Z,6.00
2018-09-06T10:39:08.497Z,6.50
2018-09-06T10:41:37.364Z,6.00
2018-09-06T10:44:06.193Z,7.07
2018-09-06T10:46:34.876Z,6.73
2018-09-06T10:49:03.588Z,4.97
2018-09-06T10:51:32.124Z,4.43
2018-09-06T10:54:00.628Z,4.93
2018-09-06T10:56:29.169Z,5.13
2018-09-06T10:58:57.717Z,5.47
2018-09-06T11:01:26.410Z,4.50
2018-09-06T11:03:56.611Z,4.20
2018-09-06T11:06:25.920Z,2.90
2018-09-06T11:08:54.780Z,1.90
2018-09-06T11:11:23.265Z,2.10
2018-09-06T11:13:51.972Z,2.40
2018-09-06T11:16:21.324Z,2.73
2018-09-06T11:18:49.808Z,2.80
2018-09-06T11:21:18.337Z,3.10
2018-09-06T11:23:46.926Z,2.70
2018-09-06T11:26:15.430Z,2.67
2018-09-06T11:28:43.918Z,3.20
2018-09-06T11:31:12.421Z,2.83
2018-09-06T11:33:40.956Z,2.10
2018-09-06T11:36:09.539Z,2.57
2018-09-06T11:38:38.040Z,2.80
2018-09-06T11:41:06.975Z,3.00
2018-09-06T11:43:35.879Z,2.67
2018-09-06T11:46:04.450Z,3.73
2018-09-06T11:48:33.105Z,3.60
2018-09-06T11:51:01.745Z,3.70
2018-09-06T11:53:30.278Z,2.60
2018-09-06T11:55:58.986Z,2.83
2018-09-06T11:58:27.549Z,2.83
2018-09-06T12:00:56.067Z,3.10
2018-09-06T12:03:24.753Z,2.70
2018-09-06T12:05:53.277Z,2.90
2018-09-06T12:08:21.775Z,3.80
2018-09-06T12:10:50.284Z,3.00
2018-09-06T12:13:18.809Z,3.30
2018-09-06T12:15:47.712Z,2.90
2018-09-06T12:18:16.469Z,2.87
2018-09-06T12:20:44.983Z,2.60
2018-09-06T12:23:13.743Z,3.53
2018-09-06T12:25:42.365Z,3.00
2018-09-06T12:28:10.983Z,3.30
2018-09-06T12:30:39.529Z,3.60
2018-09-06T12:33:08.062Z,4.20
2018-09-06T12:35:36.836Z,3.93
2018-09-06T12:38:05.370Z,4.00
2018-09-06T12:40:34.054Z,3.57
2018-09-06T12:43:02.634Z,3.80
2018-09-06T12:45:31.239Z,3.50
2018-09-06T12:47:59.790Z,3.93
2018-09-06T12:50:28.363Z,3.40
2018-09-06T12:52:56.966Z,2.97
2018-09-06T12:55:25.466Z,3.93
2018-09-06T12:57:54.033Z,3.33
2018-09-06T13:00:22.549Z,3.23
2018-09-06T13:02:51.291Z,3.20
2018-09-06T13:05:19.780Z,3.77
2018-09-06T13:07:48.501Z,3.63
2018-09-06T13:10:17.015Z,3.80
2018-09-06T13:12:45.859Z,4.43
2018-09-06T13:15:14.375Z,3.20
2018-09-06T13:17:42.880Z,3.10
2018-09-06T13:20:11.579Z,3.30
2018-09-06T13:22:40.445Z,3.03
2018-09-06T13:25:08.979Z,2.50
2018-09-06T13:27:37.495Z,3.40
2018-09-06T13:30:06.380Z,3.63
2018-09-06T13:32:34.969Z,3.20
2018-09-06T13:35:03.513Z,3.37
2018-09-06T13:37:32.274Z,3.00
2018-09-06T13:40:01.260Z,3.47
2018-09-06T13:42:30.030Z,3.40
2018-09-06T13:44:58.911Z,3.80
2018-09-06T13:47:27.450Z,3.10
2018-09-06T13:49:56.373Z,3.17
2018-09-06T13:52:24.961Z,3.37
2018-09-06T13:54:53.449Z,3.97
2018-09-06T13:57:22.067Z,3.27
2018-09-06T13:59:50.870Z,3.43
2018-09-06T14:02:19.345Z,3.20
2018-09-06T14:04:47.871Z,2.87
2018-09-06T14:07:16.677Z,3.33
2018-09-06T14:09:45.330Z,3.13
2018-09-06T14:12:13.911Z,2.70
2018-09-06T14:14:42.450Z,2.67
2018-09-06T14:17:11.556Z,2.97
2018-09-06T14:19:40.056Z,2.90
2018-09-06T14:22:08.551Z,3.10
2018-09-06T14:24:37.070Z,3.40
2018-09-06T14:27:05.573Z,3.90
2018-09-06T14:29:34.183Z,3.97
2018-09-06T14:32:02.735Z,3.77
2018-09-06T14:34:31.288Z,3.90
2018-09-06T14:36:59.802Z,3.30
2018-09-06T14:39:28.317Z,3.60
2018-09-06T14:41:56.911Z,3.70
2018-09-06T14:44:25.998Z,4.03
2018-09-06T14:46:54.497Z,4.17
2018-09-06T14:49:23.263Z,4.33
2018-09-06T14:51:52.334Z,4.57
2018-09-06T14:54:20.990Z,5.20
2018-09-06T14:56:49.500Z,5.23
2018-09-06T14:59:18.164Z,5.00
2018-09-06T15:01:47.235Z,5.30
2018-09-06T15:04:16.206Z,6.03
2018-09-06T15:06:44.728Z,5.40
2018-09-06T15:09:13.245Z,5.73
2018-09-06T15:11:41.898Z,5.83
2018-09-06T15:14:10.479Z,5.30
2018-09-06T15:16:39.013Z,5.30
2018-09-06T15:19:07.903Z,5.63
2018-09-06T15:21:36.523Z,5.60
2018-09-06T15:24:05.121Z,5.73
2018-09-06T15:26:33.629Z,5.50
2018-09-06T15:29:02.531Z,5.67
2018-09-06T15:31:31.089Z,5.60
2018-09-06T15:33:59.772Z,6.10
2018-09-06T15:36:28.406Z,5.13
2018-09-06T15:38:57.048Z,4.50
2018-09-06T15:41:25.763Z,5.47
2018-09-06T15:43:54.294Z,6.07
2018-09-06T15:46:22.898Z,7.00
2018-09-06T15:48:51.428Z,6.63
2018-09-06T15:51:20.215Z,5.80
2018-09-06T15:53:48.798Z,6.10
2018-09-06T15:56:17.659Z,5.90
2018-09-06T15:58:46.340Z,6.30
2018-09-06T16:01:14.858Z,6.07
2018-09-06T16:03:43.677Z,6.77
2018-09-06T16:06:12.530Z,10.27
2018-09-06T16:08:41.052Z,8.10
2018-09-06T16:11:09.668Z,5.90
2018-09-06T16:13:44.650Z,6.10
2018-09-06T16:16:13.530Z,5.70
2018-09-06T16:18:42.043Z,5.57
2018-09-06T16:21:41.871Z,5.47
2018-09-06T16:24:19.452Z,6.03
2018-09-06T16:33:46.943Z,6.30
2018-09-06T16:36:15.649Z,5.83
2018-09-06T16:38:44.543Z,4.93
2018-09-06T16:41:13.228Z,5.10
2018-09-06T16:43:41.815Z,5.37
2018-09-06T16:46:10.395Z,4.80
2018-09-06T16:48:38.923Z,5.27
2018-09-06T16:51:07.627Z,5.33
2018-09-06T16:53:36.363Z,5.27
2018-09-06T16:56:05.427Z,5.43
2018-09-06T16:58:33.975Z,5.03
2018-09-06T17:01:02.682Z,5.40
2018-09-06T17:03:31.518Z,5.57
2018-09-06T17:06:00.301Z,5.33
2018-09-06T17:08:28.896Z,5.17
2018-09-06T17:10:57.455Z,5.40
2018-09-06T17:13:25.982Z,5.40
2018-09-06T17:15:55.456Z,6.03
2018-09-06T17:18:23.956Z,5.13
2018-09-06T17:20:52.477Z,5.40
2018-09-06T17:23:21.054Z,5.10
2018-09-06T17:25:49.556Z,4.93
2018-09-06T17:28:18.084Z,5.33
2018-09-06T17:30:46.944Z,5.80
2018-09-06T17:33:15.642Z,5.70
2018-09-06T17:35:44.761Z,5.23
2018-09-06T17:38:13.380Z,5.33
2018-09-06T17:40:42.036Z,4.90
2018-09-06T17:43:10.663Z,4.23
2018-09-06T17:45:39.464Z,4.80
2018-09-06T17:48:08.357Z,5.33
2018-09-06T17:50:37.220Z,4.87
2018-09-06T17:53:06.177Z,5.60
2018-09-06T17:55:34.707Z,5.30
2018-09-06T17:58:03.526Z,5.50
2018-09-06T18:00:32.079Z,5.03
2018-09-06T18:03:00.600Z,5.13
2018-09-06T18:05:30.231Z,6.37
2018-09-06T18:07:58.847Z,7.80
2018-09-06T18:10:27.719Z,6.97
2018-09-06T18:12:56.532Z,7.40
2018-09-06T18:15:25.550Z,7.67
2018-09-06T18:17:54.549Z,7.67
2018-09-06T18:20:22.951Z,7.47
2018-09-06T18:22:51.493Z,9.47
2018-09-06T18:25:20.067Z,8.80
2018-09-06T18:27:49.151Z,9.07
2018-09-06T18:30:17.761Z,9.47
2018-09-06T18:32:46.421Z,10.03
2018-09-06T18:35:14.969Z,10.13
2018-09-06T18:37:43.689Z,10.00
2018-09-06T18:40:12.585Z,10.13
2018-09-06T18:42:41.346Z,10.77
2018-09-06T18:45:10.071Z,10.73
2018-09-06T18:47:38.678Z,10.47
2018-09-06T18:50:07.201Z,10.10
2018-09-06T18:52:35.729Z,10.10
2018-09-06T18:55:04.242Z,10.93
2018-09-06T18:57:32.834Z,12.03
2018-09-06T19:00:01.581Z,11.57
2018-09-06T19:02:30.154Z,10.37
2018-09-06T19:04:58.819Z,10.57
2018-09-06T19:07:27.419Z,11.33
2018-09-06T19:09:55.983Z,11.17
2018-09-06T19:12:24.597Z,11.13
2018-09-06T19:14:53.119Z,10.60
2018-09-06T19:17:22.214Z,10.87
2018-09-06T19:19:51.032Z,12.33
2018-09-06T19:22:19.577Z,11.13
2018-09-06T19:24:48.330Z,10.30
2018-09-06T19:27:16.888Z,10.27
2018-09-06T19:29:45.501Z,9.30
2018-09-06T19:32:14.070Z,8.93
2018-09-06T19:34:42.602Z,8.97
2018-09-06T19:37:11.262Z,8.67
2018-09-06T19:39:39.990Z,10.50
2018-09-06T19:42:08.624Z,8.57
2018-09-06T19:44:37.218Z,10.00
2018-09-06T19:47:06.008Z,9.53
2018-09-06T19:49:34.834Z,9.90
2018-09-06T19:52:03.364Z,10.30
2018-09-06T19:54:32.399Z,11.87
2018-09-06T19:57:01.382Z,12.40
2018-09-06T19:59:30.313Z,12.27
2018-09-06T20:01:59.022Z,12.03
2018-09-06T20:04:28.025Z,12.50
2018-09-06T20:06:56.579Z,12.77
2018-09-06T20:09:25.792Z,12.70
2018-09-06T20:11:57.217Z,11.53
2018-09-06T20:14:25.694Z,12.63
2018-09-06T20:16:54.527Z,13.77
2018-09-06T20:19:23.221Z,13.70
2018-09-06T20:21:51.789Z,12.57
2018-09-06T20:24:20.293Z,13.27
2018-09-06T20:26:48.784Z,12.23
2018-09-06T20:29:17.651Z,12.33
2018-09-06T20:31:46.577Z,12.93
2018-09-06T20:34:15.328Z,14.37
2018-09-06T20:36:43.864Z,15.27
2018-09-06T20:39:12.729Z,13.83
2018-09-06T20:41:41.409Z,14.63
2018-09-06T20:44:10.383Z,13.83
2018-09-06T20:46:39.364Z,15.47
2018-09-06T20:49:07.875Z,15.13
2018-09-06T20:51:36.426Z,13.70
2018-09-06T20:54:04.999Z,15.43
2018-09-06T20:56:33.713Z,14.80
2018-09-06T20:59:02.213Z,16.23
2018-09-06T21:01:30.986Z,17.47
2018-09-06T21:03:59.556Z,20.33
2018-09-06T21:06:28.268Z,20.63
2018-09-06T21:08:56.839Z,22.13
2018-09-06T21:11:25.564Z,21.37
2018-09-06T21:13:54.301Z,20.87
2018-09-06T21:16:22.823Z,20.03
2018-09-06T21:18:51.566Z,20.60
2018-09-06T21:21:20.236Z,21.37
2018-09-06T21:23:48.855Z,23.47
2018-09-06T21:26:17.398Z,23.00
2018-09-06T21:28:46.086Z,20.90
2018-09-06T21:31:14.788Z,20.27
2018-09-06T21:33:44.196Z,19.27
2018-09-06T21:42:56.950Z,22.30
2018-09-06T21:45:25.741Z,25.27
2018-09-06T21:47:54.237Z,26.00
2018-09-06T21:50:22.916Z,24.97
2018-09-06T21:52:51.643Z,24.37
2018-09-06T21:55:20.347Z,23.53
2018-09-06T21:57:48.866Z,23.20
2018-09-06T22:00:17.421Z,23.63
2018-09-06T22:02:51.558Z,26.03
2018-09-06T22:05:20.109Z,26.03
2018-09-06T22:07:48.637Z,24.80
2018-09-06T22:10:21.461Z,25.13
2018-09-06T22:12:51.061Z,26.03
2018-09-06T22:15:20.115Z,26.57
2018-09-06T22:17:48.704Z,26.27
2018-09-06T22:20:18.001Z,26.33
2018-09-06T22:22:46.576Z,31.20
2018-09-06T22:25:15.783Z,30.33
2018-09-06T22:27:44.766Z,28.87
2018-09-06T22:30:13.237Z,28.97
2018-09-06T22:32:41.755Z,32.97
2018-09-06T22:35:10.619Z,31.80
2018-09-06T22:37:39.411Z,32.07
2018-09-06T22:40:08.068Z,30.53
2018-09-06T22:42:36.601Z,31.60
2018-09-06T22:45:05.083Z,32.43
2018-09-06T22:47:33.648Z,30.77
2018-09-06T22:50:02.140Z,31.40
2018-09-06T22:52:30.689Z,31.63
2018-09-06T22:54:59.196Z,29.77
2018-09-06T22:57:27.748Z,28.87
2018-09-06T22:59:56.292Z,27.47
2018-09-06T23:02:29.034Z,28.43
2018-09-06T23:04:57.609Z,27.67
2018-09-06T23:07:26.134Z,27.53
2018-09-06T23:09:54.740Z,27.37
2018-09-06T23:12:23.213Z,30.07
2018-09-06T23:14:51.980Z,26.90
2018-09-06T23:17:21.237Z,28.80
2018-09-06T23:19:49.725Z,29.83
2018-09-06T23:22:18.658Z,30.37
2018-09-06T23:24:47.636Z,30.87
2018-09-06T23:27:16.320Z,31.30
2018-09-06T23:29:44.971Z,30.97
2018-09-06T23:32:13.571Z,30.17
2018-09-06T23:34:42.127Z,28.90
2018-09-06T23:37:10.761Z,29.70
2018-09-06T23:39:39.254Z,30.43
2018-09-06T23:42:08.114Z,27.63
2018-09-06T23:44:37.285Z,28.13
2018-09-06T23:47:06.305Z,26.87
2018-09-06T23:49:34.781Z,26.10
2018-09-06T23:52:03.458Z,25.33
2018-09-06T23:54:32.032Z,24.67
2018-09-06T23:57:00.528Z,24.43
2018-09-06T23:59:29.020Z,23.77
